Time;durP1;ratioP1;P1;durP2;ratioP2;P2;SDS_P1;SDS_P2;PMS_P1;PMS_P2;Temp;Humidity;BMP_temperature;BMP_pressure;BME280_temperature;BME280_humidity;BME280_pressure;Samples;Min_cycle;Max_cycle;Signal;HPM_P1;HPM_P2
2023/09/06 00:02:34;;;;;;;5.43;3.72;;;19.80;97.30;;;;;;6269609;22;20149;-67
2023/09/06 00:05:20;;;;;;;6.55;3.90;;;19.80;97.20;;;;;;6274021;22;20095;-67
2023/09/06 00:08:08;;;;;;;6.57;4.18;;;19.70;97.30;;;;;;6272666;22;20008;-67
2023/09/06 00:10:54;;;;;;;4.78;3.47;;;19.70;97.40;;;;;;6272475;22;20008;-67
2023/09/06 00:13:40;;;;;;;4.45;3.55;;;19.70;97.50;;;;;;6269811;22;20437;-67
2023/09/06 00:16:26;;;;;;;11.45;4.63;;;19.70;97.70;;;;;;6271213;22;20011;-67
2023/09/06 00:19:14;;;;;;;5.53;2.95;;;19.60;97.80;;;;;;6272833;22;20101;-67
2023/09/06 00:25:43;;;;;;;5.20;3.40;;;19.60;98.00;;;;;;6270938;22;20004;-67
2023/09/06 00:28:29;;;;;;;8.25;4.45;;;19.50;98.00;;;;;;6248351;22;20011;-67
2023/09/06 00:31:15;;;;;;;7.95;3.72;;;19.50;98.10;;;;;;6268383;22;20054;-67
2023/09/06 00:34:02;;;;;;;6.63;3.70;;;19.50;98.20;;;;;;6269752;22;20077;-66
2023/09/06 00:36:48;;;;;;;5.35;3.65;;;19.40;98.40;;;;;;6271428;22;20016;-67
2023/09/06 00:39:34;;;;;;;4.32;3.22;;;19.40;98.50;;;;;;6272646;22;20464;-67
2023/09/06 00:42:24;;;;;;;5.25;3.95;;;19.40;98.60;;;;;;6270795;22;20105;-68
2023/09/06 00:45:09;;;;;;;6.30;3.97;;;19.30;98.60;;;;;;6249699;22;20016;-68
2023/09/06 00:47:57;;;;;;;5.85;3.85;;;19.30;98.70;;;;;;6271949;22;20020;-67
2023/09/06 00:50:43;;;;;;;4.93;3.58;;;19.30;98.80;;;;;;6271142;22;20497;-67
2023/09/06 00:53:31;;;;;;;8.43;3.95;;;19.20;98.90;;;;;;6270497;22;20016;-67
2023/09/06 00:56:17;;;;;;;5.15;3.47;;;19.20;99.00;;;;;;6270982;22;20007;-67
2023/09/06 00:59:03;;;;;;;6.38;3.38;;;19.20;99.00;;;;;;6271509;22;20560;-66
2023/09/06 01:01:51;;;;;;;5.50;3.97;;;19.20;99.10;;;;;;6272278;22;20066;-68
2023/09/06 01:04:37;;;;;;;7.03;3.97;;;19.20;99.30;;;;;;6270295;22;20042;-67
2023/09/06 01:07:28;;;;;;;5.78;3.70;;;19.10;99.30;;;;;;6272718;22;20406;-67
2023/09/06 01:10:14;;;;;;;6.18;4.10;;;19.10;99.40;;;;;;6270121;22;20026;-67
2023/09/06 01:13:00;;;;;;;5.93;3.88;;;19.10;99.50;;;;;;6269242;22;20019;-68
2023/09/06 01:15:48;;;;;;;5.57;3.80;;;19.10;99.50;;;;;;6271492;22;20026;-68
2023/09/06 01:18:34;;;;;;;5.40;3.55;;;19.10;99.50;;;;;;6269784;22;20019;-67
2023/09/06 01:21:25;;;;;;;7.85;4.68;;;19.10;99.50;;;;;;6270759;22;20015;-67
2023/09/06 01:24:11;;;;;;;6.53;4.30;;;19.00;99.70;;;;;;6270454;22;20024;-68
2023/09/06 01:26:58;;;;;;;5.60;3.95;;;19.00;99.70;;;;;;6270424;22;20062;-68
2023/09/06 01:29:44;;;;;;;4.80;3.47;;;19.00;99.80;;;;;;6271429;22;20012;-68
2023/09/06 01:32:30;;;;;;;5.80;3.78;;;19.00;99.80;;;;;;6249521;22;20353;-68
2023/09/06 01:35:16;;;;;;;5.38;3.17;;;19.00;99.80;;;;;;6270875;22;20019;-68
2023/09/06 01:38:01;;;;;;;5.88;3.60;;;18.90;99.90;;;;;;6268366;22;20011;-68
2023/09/06 01:40:47;;;;;;;5.53;3.30;;;18.90;99.90;;;;;;6270993;22;20011;-68
2023/09/06 01:43:34;;;;;;;6.55;3.92;;;18.90;99.90;;;;;;6249600;22;20031;-68
2023/09/06 01:46:22;;;;;;;8.45;3.50;;;18.90;99.90;;;;;;6272121;22;20008;-68
2023/09/06 01:49:08;;;;;;;6.57;3.90;;;18.80;99.90;;;;;;6272066;22;20012;-68
2023/09/06 01:51:57;;;;;;;5.68;3.70;;;18.80;99.90;;;;;;6271987;22;20007;-68
2023/09/06 01:54:45;;;;;;;5.60;3.88;;;18.80;99.90;;;;;;6271283;22;20019;-68
2023/09/06 01:57:31;;;;;;;4.47;3.20;;;18.80;99.90;;;;;;6272158;22;20008;-68
2023/09/06 02:00:32;;;;;;;5.20;3.60;;;18.80;99.90;;;;;;6271434;22;20015;-68
2023/09/06 02:03:17;;;;;;;5.22;3.60;;;18.80;99.90;;;;;;6268771;22;20020;-68
2023/09/06 02:06:04;;;;;;;7.00;4.43;;;18.80;99.90;;;;;;6274544;22;20008;-68
2023/09/06 02:08:50;;;;;;;4.68;3.63;;;18.70;99.90;;;;;;6275428;22;20015;-68
2023/09/06 02:11:36;;;;;;;7.00;4.40;;;18.70;99.90;;;;;;6270323;22;20012;-68
2023/09/06 02:14:22;;;;;;;6.70;3.95;;;18.70;99.90;;;;;;6268433;22;20007;-68
2023/09/06 02:17:08;;;;;;;4.65;3.70;;;18.70;99.90;;;;;;6270354;22;20353;-67
2023/09/06 02:19:54;;;;;;;5.43;3.60;;;18.60;99.90;;;;;;6269333;22;20319;-67
2023/09/06 02:22:40;;;;;;;7.18;4.03;;;18.60;99.90;;;;;;6268234;22;20026;-67
2023/09/06 02:25:31;;;;;;;5.93;4.43;;;18.60;99.90;;;;;;6270774;22;20056;-67
2023/09/06 02:28:17;;;;;;;5.55;4.07;;;18.60;99.90;;;;;;6270907;22;20113;-67
2023/09/06 02:31:04;;;;;;;5.45;3.60;;;18.60;99.90;;;;;;6268697;22;20012;-68
2023/09/06 02:33:50;;;;;;;5.47;4.03;;;18.50;99.90;;;;;;6271632;22;20012;-67
2023/09/06 02:36:36;;;;;;;6.38;4.15;;;18.50;99.90;;;;;;6270377;22;20350;-68
2023/09/06 02:39:22;;;;;;;6.57;3.63;;;18.50;99.90;;;;;;6271074;22;20654;-67
2023/09/06 02:42:07;;;;;;;5.20;3.65;;;18.40;99.90;;;;;;6272812;22;20012;-67
2023/09/06 02:44:54;;;;;;;7.30;3.65;;;18.40;99.90;;;;;;6270640;22;20441;-67
2023/09/06 02:47:48;;;;;;;5.13;3.78;;;18.40;99.90;;;;;;6272831;22;20015;-66
2023/09/06 02:50:35;;;;;;;5.25;3.88;;;18.40;99.90;;;;;;6272575;22;20008;-67
2023/09/06 02:53:21;;;;;;;5.63;3.88;;;18.30;99.90;;;;;;6271136;22;20085;-68
2023/09/06 02:56:07;;;;;;;5.20;4.05;;;18.30;99.90;;;;;;6274210;22;20015;-67
2023/09/06 02:58:53;;;;;;;6.68;4.32;;;18.30;99.90;;;;;;6273029;22;20098;-67
2023/09/06 03:01:44;;;;;;;5.03;3.90;;;18.20;99.90;;;;;;6252123;22;20503;-67
2023/09/06 03:04:37;;;;;;;6.78;4.47;;;18.20;99.90;;;;;;6250305;22;20016;-67
2023/09/06 03:07:24;;;;;;;5.75;3.97;;;18.20;99.90;;;;;;6272351;22;20433;-67
2023/09/06 03:10:10;;;;;;;6.13;4.43;;;18.20;99.90;;;;;;6273925;22;20065;-67
2023/09/06 03:12:58;;;;;;;6.80;4.82;;;18.20;99.90;;;;;;6271069;22;20012;-67
2023/09/06 03:15:44;;;;;;;7.05;4.47;;;18.10;99.90;;;;;;6272105;22;20373;-68
2023/09/06 03:18:30;;;;;;;6.18;4.07;;;18.10;99.90;;;;;;6270177;22;20020;-68
2023/09/06 03:21:17;;;;;;;7.50;4.13;;;18.10;99.90;;;;;;6273023;22;20008;-68
2023/09/06 03:24:11;;;;;;;8.02;4.20;;;18.10;99.90;;;;;;6270863;22;20450;-67
2023/09/06 03:26:58;;;;;;;6.63;4.32;;;18.10;99.90;;;;;;6271890;22;20851;-68
2023/09/06 03:29:45;;;;;;;6.88;4.47;;;18.00;99.90;;;;;;6271607;22;20018;-67
2023/09/06 03:32:31;;;;;;;6.00;4.47;;;18.00;99.90;;;;;;6273057;22;20014;-68
2023/09/06 03:35:17;;;;;;;6.97;4.55;;;18.00;99.90;;;;;;6272474;22;20015;-68
2023/09/06 03:38:08;;;;;;;8.52;4.70;;;18.00;99.90;;;;;;6273461;22;20011;-68
2023/09/06 03:40:54;;;;;;;7.20;4.05;;;18.00;99.90;;;;;;6271543;22;20141;-67
2023/09/06 03:43:40;;;;;;;6.05;4.18;;;18.00;99.90;;;;;;6250473;22;20024;-67
2023/09/06 03:46:28;;;;;;;6.82;5.05;;;18.00;99.90;;;;;;6272468;22;20058;-67
2023/09/06 03:49:15;;;;;;;6.45;4.40;;;18.00;99.90;;;;;;6272654;22;20012;-67
2023/09/06 03:52:03;;;;;;;8.63;5.25;;;17.90;99.90;;;;;;6272068;22;20012;-67
2023/09/06 03:54:50;;;;;;;5.53;4.40;;;17.90;99.90;;;;;;6273281;22;20398;-67
2023/09/06 03:57:37;;;;;;;7.75;5.22;;;17.90;99.90;;;;;;6271349;22;20008;-67
2023/09/06 04:00:31;;;;;;;6.63;4.25;;;17.90;99.90;;;;;;6271572;22;20008;-67
2023/09/06 04:03:18;;;;;;;6.05;4.25;;;17.80;99.90;;;;;;6271847;22;20442;-67
2023/09/06 04:06:06;;;;;;;8.15;4.93;;;17.80;99.90;;;;;;6249596;22;20061;-67
2023/09/06 04:08:53;;;;;;;5.57;4.50;;;17.80;99.90;;;;;;6273395;22;20012;-67
2023/09/06 04:11:41;;;;;;;6.38;4.80;;;17.80;99.90;;;;;;6272372;22;20007;-67
2023/09/06 04:14:29;;;;;;;6.35;4.63;;;17.80;99.90;;;;;;6272239;22;20433;-67
2023/09/06 04:17:15;;;;;;;6.55;4.63;;;17.70;99.90;;;;;;6272048;22;20054;-67
2023/09/06 04:20:17;;;;;;;5.95;4.63;;;17.70;99.90;;;;;;6271742;22;20445;-67
2023/09/06 04:23:08;;;;;;;6.82;5.03;;;17.70;99.90;;;;;;6272808;22;20027;-67
2023/09/06 04:25:55;;;;;;;5.70;4.63;;;17.70;99.90;;;;;;6270432;22;20007;-67
2023/09/06 04:28:41;;;;;;;7.32;4.40;;;17.70;99.90;;;;;;6271899;22;20011;-67
2023/09/06 04:31:27;;;;;;;5.82;4.55;;;17.70;99.90;;;;;;6271373;22;20019;-66
2023/09/06 04:34:12;;;;;;;8.57;4.60;;;17.70;99.90;;;;;;6268766;22;20073;-68
2023/09/06 04:36:58;;;;;;;6.65;4.70;;;17.70;99.90;;;;;;6270865;22;20844;-68
2023/09/06 04:39:44;;;;;;;7.93;4.80;;;17.60;99.90;;;;;;6271297;22;20388;-68
2023/09/06 04:42:32;;;;;;;6.82;4.60;;;17.60;99.90;;;;;;6269891;22;20027;-68
2023/09/06 04:45:18;;;;;;;7.50;4.93;;;17.70;99.90;;;;;;6272841;22;20083;-68
2023/09/06 04:48:23;;;;;;;6.43;4.75;;;17.60;99.90;;;;;;6270877;22;20008;-68
2023/09/06 04:51:09;;;;;;;6.65;4.88;;;17.70;99.90;;;;;;6272821;22;20011;-68
2023/09/06 04:53:55;;;;;;;5.32;4.05;;;17.70;99.90;;;;;;6268821;22;20012;-68
2023/09/06 04:56:42;;;;;;;7.72;4.28;;;17.60;99.90;;;;;;6270880;22;20039;-68
2023/09/06 04:59:28;;;;;;;8.40;4.75;;;17.60;99.90;;;;;;6271680;22;20061;-67
2023/09/06 05:02:15;;;;;;;5.95;4.53;;;17.60;99.90;;;;;;6269790;22;20012;-67
2023/09/06 05:05:01;;;;;;;7.25;5.40;;;17.60;99.90;;;;;;6272778;22;20063;-67
2023/09/06 05:07:47;;;;;;;6.55;4.43;;;17.70;99.90;;;;;;6271455;22;20011;-66
2023/09/06 05:10:35;;;;;;;7.10;4.38;;;17.60;99.90;;;;;;6249978;22;20019;-67
2023/09/06 05:13:22;;;;;;;6.15;4.15;;;17.70;99.90;;;;;;6269585;22;20082;-68
2023/09/06 05:16:08;;;;;;;7.68;5.18;;;17.70;99.90;;;;;;6271783;22;20019;-70
2023/09/06 05:18:54;;;;;;;6.32;4.57;;;17.70;99.90;;;;;;6251361;22;20350;-72
2023/09/06 05:21:40;;;;;;;6.15;4.63;;;17.70;99.90;;;;;;6272211;22;20459;-71
2023/09/06 05:24:26;;;;;;;7.03;4.85;;;17.70;99.90;;;;;;6251822;22;20091;-71
2023/09/06 05:27:13;;;;;;;8.25;4.70;;;17.70;99.90;;;;;;6269947;22;20526;-72
2023/09/06 05:30:02;;;;;;;11.32;4.65;;;17.70;99.90;;;;;;6270554;22;20011;-73
2023/09/06 05:32:49;;;;;;;8.27;5.25;;;17.80;99.90;;;;;;6270908;22;20318;-73
2023/09/06 05:35:36;;;;;;;6.78;4.47;;;17.80;99.90;;;;;;6248153;22;20499;-74
2023/09/06 05:38:22;;;;;;;7.85;5.00;;;17.80;99.90;;;;;;6270176;22;20362;-75
2023/09/06 05:41:08;;;;;;;6.90;4.50;;;17.80;99.90;;;;;;6247663;22;20012;-72
2023/09/06 05:43:54;;;;;;;9.23;5.32;;;17.80;99.90;;;;;;6269433;22;20038;-69
2023/09/06 05:46:40;;;;;;;18.65;6.40;;;17.80;99.90;;;;;;6271561;22;20011;-69
2023/09/06 05:49:26;;;;;;;7.15;4.95;;;17.90;99.90;;;;;;6244347;22;20022;-69
2023/09/06 05:52:12;;;;;;;6.30;4.97;;;17.90;99.90;;;;;;6267594;22;20012;-70
2023/09/06 05:54:58;;;;;;;6.13;4.82;;;17.90;99.90;;;;;;6269412;22;20012;-70
2023/09/06 05:57:44;;;;;;;7.50;5.65;;;17.90;99.90;;;;;;6269227;22;20014;-69
2023/09/06 06:00:30;;;;;;;7.47;5.18;;;18.00;99.90;;;;;;6248623;22;20015;-69
2023/09/06 06:03:19;;;;;;;6.90;4.70;;;18.00;99.90;;;;;;6270738;22;20026;-70
2023/09/06 06:06:10;;;;;;;11.35;5.63;;;18.00;99.90;;;;;;6271743;22;20007;-69
2023/09/06 06:08:56;;;;;;;8.25;4.72;;;18.10;99.90;;;;;;6270433;22;20012;-70
2023/09/06 06:11:42;;;;;;;7.03;4.70;;;18.10;99.90;;;;;;6270304;22;20029;-70
2023/09/06 06:14:28;;;;;;;9.70;5.20;;;18.10;99.90;;;;;;6247047;22;20374;-71
2023/09/06 06:17:14;;;;;;;6.95;5.13;;;18.20;99.90;;;;;;6267007;22;20023;-71
2023/09/06 06:20:00;;;;;;;7.68;5.03;;;18.20;99.90;;;;;;6268403;22;20016;-71
2023/09/06 06:22:46;;;;;;;9.75;5.60;;;18.30;99.90;;;;;;6270423;22;20020;-71
2023/09/06 06:25:32;;;;;;;9.38;5.15;;;18.30;99.90;;;;;;6249087;22;20075;-71
2023/09/06 06:28:18;;;;;;;11.40;4.80;;;18.40;99.90;;;;;;6267837;22;20122;-71
2023/09/06 06:31:04;;;;;;;8.95;5.55;;;18.40;99.90;;;;;;6269853;22;20376;-71
2023/09/06 06:33:50;;;;;;;9.48;5.78;;;18.50;99.90;;;;;;6269539;22;20356;-68
2023/09/06 06:36:36;;;;;;;7.03;5.47;;;18.50;99.90;;;;;;6269729;22;20004;-69
2023/09/06 06:39:22;;;;;;;7.45;5.10;;;18.60;99.90;;;;;;6270394;22;20018;-70
2023/09/06 06:42:08;;;;;;;8.25;5.60;;;18.60;99.90;;;;;;6270766;22;20012;-70
2023/09/06 06:44:54;;;;;;;8.20;5.97;;;18.70;99.90;;;;;;6249238;22;20015;-70
2023/09/06 06:47:40;;;;;;;6.78;4.88;;;18.80;99.90;;;;;;6270011;22;20742;-70
2023/09/06 06:50:26;;;;;;;7.40;4.95;;;18.80;99.90;;;;;;6270755;22;20019;-68
2023/09/06 06:53:12;;;;;;;8.52;4.75;;;18.90;99.90;;;;;;6270085;22;20270;-69
2023/09/06 06:55:57;;;;;;;8.23;5.50;;;18.90;99.90;;;;;;6271206;22;20127;-72
2023/09/06 06:58:43;;;;;;;7.88;5.03;;;19.00;99.90;;;;;;6246874;22;20010;-72
2023/09/06 07:01:30;;;;;;;10.18;5.63;;;19.10;99.90;;;;;;6269668;22;20012;-71
2023/09/06 07:04:16;;;;;;;10.93;5.43;;;19.10;99.90;;;;;;6271360;22;20015;-70
2023/09/06 07:07:03;;;;;;;8.38;5.35;;;19.20;99.90;;;;;;6268759;22;20012;-71
2023/09/06 07:09:49;;;;;;;11.20;5.45;;;19.30;99.90;;;;;;6271239;22;20456;-72
2023/09/06 07:12:36;;;;;;;8.02;5.28;;;19.30;99.90;;;;;;6270858;22;20034;-72
2023/09/06 07:15:21;;;;;;;9.90;5.75;;;19.40;99.90;;;;;;6267604;22;20039;-72
2023/09/06 07:18:08;;;;;;;12.93;6.78;;;19.50;99.90;;;;;;6267898;22;20016;-71
2023/09/06 07:20:54;;;;;;;17.52;5.97;;;19.50;99.90;;;;;;6266851;22;20134;-71
2023/09/06 07:23:41;;;;;;;12.13;6.75;;;19.60;99.90;;;;;;6248012;22;20020;-71
2023/09/06 07:26:27;;;;;;;8.60;4.78;;;19.60;99.90;;;;;;6271188;22;20011;-71
2023/09/06 07:29:13;;;;;;;8.05;5.45;;;19.70;99.90;;;;;;6272907;22;20007;-71
2023/09/06 07:31:59;;;;;;;7.90;5.25;;;19.80;99.90;;;;;;6272556;22;20495;-71
2023/09/06 07:34:44;;;;;;;9.20;4.80;;;19.90;99.90;;;;;;6272310;22;20008;-71
2023/09/06 07:37:30;;;;;;;8.15;4.78;;;20.00;99.90;;;;;;6272397;22;20019;-72
2023/09/06 07:40:16;;;;;;;9.07;5.55;;;20.00;99.90;;;;;;6251331;22;20145;-73
2023/09/06 07:43:03;;;;;;;11.10;5.85;;;20.10;99.90;;;;;;6269934;22;20070;-74
2023/09/06 07:45:49;;;;;;;15.45;6.07;;;20.20;99.90;;;;;;6272532;22;20004;-73
2023/09/06 07:48:36;;;;;;;9.65;6.47;;;20.30;99.70;;;;;;6249314;22;20051;-72
2023/09/06 07:51:23;;;;;;;9.88;5.22;;;20.40;99.70;;;;;;6272228;22;20065;-72
2023/09/06 07:54:10;;;;;;;12.80;5.55;;;20.50;99.60;;;;;;6272477;22;20354;-73
2023/09/06 07:56:56;;;;;;;9.20;5.13;;;20.50;99.40;;;;;;6271527;22;20041;-73
2023/09/06 07:59:42;;;;;;;10.98;6.10;;;20.60;99.30;;;;;;6265972;22;20016;-73
2023/09/06 08:02:28;;;;;;;12.60;5.93;;;20.70;99.10;;;;;;6271294;22;20015;-74
2023/09/06 08:05:14;;;;;;;11.90;5.95;;;20.80;98.80;;;;;;6272242;22;20107;-73
2023/09/06 08:08:01;;;;;;;9.93;5.90;;;20.90;98.70;;;;;;6271999;22;20416;-73
2023/09/06 08:10:47;;;;;;;9.23;5.97;;;21.00;98.60;;;;;;6272853;22;20415;-73
2023/09/06 08:13:33;;;;;;;8.35;5.28;;;21.10;98.60;;;;;;6271227;22;20090;-73
2023/09/06 08:16:19;;;;;;;13.45;5.68;;;21.20;98.70;;;;;;6249249;22;20449;-74
2023/09/06 08:19:05;;;;;;;8.57;5.20;;;21.20;98.70;;;;;;6270156;22;20047;-73
2023/09/06 08:21:51;;;;;;;6.85;4.90;;;21.30;98.60;;;;;;6271837;22;20015;-73
2023/09/06 08:24:37;;;;;;;9.70;4.95;;;21.40;98.40;;;;;;6271994;22;20441;-73
2023/09/06 08:27:22;;;;;;;10.98;5.80;;;21.50;98.20;;;;;;6271866;22;20018;-73
2023/09/06 08:30:13;;;;;;;9.05;5.63;;;21.60;98.00;;;;;;6269463;22;20452;-73
2023/09/06 08:32:59;;;;;;;15.20;5.60;;;21.70;97.90;;;;;;6270316;22;20011;-73
2023/09/06 08:35:45;;;;;;;9.85;5.50;;;21.80;97.80;;;;;;6275715;22;20025;-73
2023/09/06 08:38:32;;;;;;;9.85;5.63;;;21.90;97.60;;;;;;6277888;22;20065;-73
2023/09/06 08:41:20;;;;;;;9.90;5.20;;;21.90;97.30;;;;;;6277611;22;20015;-73
2023/09/06 08:44:11;;;;;;;8.05;5.20;;;22.00;97.30;;;;;;6270534;22;20023;-74
2023/09/06 08:47:01;;;;;;;12.27;4.80;;;22.10;96.90;;;;;;6270573;22;20054;-73
2023/09/06 08:49:48;;;;;;;16.25;5.65;;;22.20;96.60;;;;;;6270447;22;20500;-74
2023/09/06 08:52:34;;;;;;;8.35;5.60;;;22.20;96.40;;;;;;6271309;22;20090;-73
2023/09/06 08:55:21;;;;;;;7.03;4.35;;;22.30;96.10;;;;;;6271047;22;20011;-73
2023/09/06 08:58:07;;;;;;;9.35;4.50;;;22.40;96.00;;;;;;6270659;22;20011;-73
2023/09/06 09:00:53;;;;;;;6.93;4.00;;;22.50;95.70;;;;;;6270993;22;20007;-74
2023/09/06 09:03:39;;;;;;;7.78;5.03;;;22.50;95.50;;;;;;6270335;22;20024;-73
2023/09/06 09:06:25;;;;;;;7.80;4.60;;;22.70;95.40;;;;;;6271668;22;20090;-73
2023/09/06 09:09:16;;;;;;;6.55;5.18;;;22.80;95.40;;;;;;6271476;22;20022;-74
2023/09/06 09:12:02;;;;;;;8.13;5.53;;;22.90;95.30;;;;;;6270871;22;20019;-73
2023/09/06 09:14:48;;;;;;;8.63;4.32;;;23.00;95.20;;;;;;6271668;22;20064;-74
2023/09/06 09:17:37;;;;;;;8.57;5.22;;;23.00;95.10;;;;;;6267565;22;20097;-74
2023/09/06 09:20:25;;;;;;;14.60;4.38;;;23.10;94.90;;;;;;6271681;22;20012;-74
2023/09/06 09:23:16;;;;;;;10.77;4.82;;;23.30;94.90;;;;;;6269435;22;20019;-74
2023/09/06 09:26:02;;;;;;;10.35;4.40;;;23.40;94.70;;;;;;6271650;22;20338;-72
2023/09/06 09:28:51;;;;;;;7.40;4.18;;;23.50;94.50;;;;;;6271379;22;20421;-73
2023/09/06 09:31:38;;;;;;;9.27;4.50;;;23.60;94.40;;;;;;6270762;22;20047;-72
2023/09/06 09:34:25;;;;;;;7.15;4.40;;;23.60;94.20;;;;;;6272217;22;20728;-69
2023/09/06 09:37:13;;;;;;;6.72;3.78;;;23.70;93.90;;;;;;6249970;22;20042;-72
2023/09/06 09:40:15;;;;;;;6.47;4.30;;;23.80;93.70;;;;;;6271384;22;20406;-71
2023/09/06 09:43:02;;;;;;;5.78;3.80;;;24.00;93.60;;;;;;6268254;22;20059;-70
2023/09/06 09:45:48;;;;;;;4.53;3.33;;;24.00;93.60;;;;;;6270487;22;20336;-71
2023/09/06 09:48:34;;;;;;;7.07;3.88;;;24.10;93.20;;;;;;6270059;22;20008;-71
2023/09/06 09:51:21;;;;;;;7.18;3.75;;;24.20;92.90;;;;;;6269437;22;20358;-71
2023/09/06 09:54:10;;;;;;;5.53;3.45;;;24.30;92.60;;;;;;6270942;22;20092;-71
2023/09/06 09:57:05;;;;;;;7.85;3.38;;;24.30;92.20;;;;;;6270048;22;20086;-71
2023/09/06 09:59:54;;;;;;;5.32;3.63;;;24.40;91.80;;;;;;6271260;22;20007;-71
2023/09/06 10:02:45;;;;;;;7.18;3.63;;;24.50;91.40;;;;;;6269959;22;20030;-71
2023/09/06 10:05:32;;;;;;;4.07;3.10;;;24.60;91.30;;;;;;6272090;22;20082;-71
2023/09/06 10:08:19;;;;;;;6.07;3.60;;;24.70;91.00;;;;;;6269399;22;20015;-71
2023/09/06 10:11:07;;;;;;;7.55;3.72;;;24.80;90.80;;;;;;6269727;22;20050;-71
2023/09/06 10:13:53;;;;;;;5.30;3.40;;;24.90;90.40;;;;;;6271630;22;20016;-71
2023/09/06 10:16:40;;;;;;;7.20;3.20;;;24.90;90.40;;;;;;6269580;22;20496;-71
2023/09/06 10:19:27;;;;;;;6.07;3.75;;;24.90;90.10;;;;;;6270901;22;20043;-71
2023/09/06 10:22:15;;;;;;;5.40;3.60;;;25.10;90.00;;;;;;6270349;22;20038;-71
2023/09/06 10:25:07;;;;;;;9.00;3.78;;;25.10;90.00;;;;;;6269162;22;20020;-71
2023/09/06 10:27:54;;;;;;;10.45;4.05;;;25.20;89.90;;;;;;6269067;22;20421;-70
2023/09/06 10:30:47;;;;;;;3.83;2.72;;;25.30;89.70;;;;;;6269164;22;20016;-71
2023/09/06 10:33:36;;;;;;;6.03;3.00;;;25.30;89.40;;;;;;6269746;22;20449;-71
2023/09/06 10:36:27;;;;;;;4.88;2.80;;;25.40;88.80;;;;;;6270303;22;20020;-71
2023/09/06 10:39:14;;;;;;;4.07;2.78;;;25.50;88.40;;;;;;6267638;22;20015;-71
2023/09/06 10:42:09;;;;;;;5.03;3.33;;;25.50;87.70;;;;;;6269727;22;20479;-71
2023/09/06 10:44:55;;;;;;;6.57;3.20;;;25.60;86.90;;;;;;6270533;22;20046;-71
2023/09/06 10:47:41;;;;;;;7.47;3.03;;;25.70;85.90;;;;;;6250403;22;20004;-71
2023/09/06 10:50:29;;;;;;;4.95;3.17;;;25.70;85.70;;;;;;6267186;22;20426;-72
2023/09/06 10:53:19;;;;;;;4.95;3.10;;;25.80;85.10;;;;;;6269840;22;20042;-71
2023/09/06 10:56:06;;;;;;;5.78;3.15;;;25.80;84.60;;;;;;6269436;22;20468;-70
2023/09/06 10:58:56;;;;;;;4.20;2.67;;;25.90;83.80;;;;;;6268845;22;20012;-71
2023/09/06 11:02:20;;;;;;;5.25;3.25;;;25.90;83.40;;;;;;6271825;22;20015;-71
2023/09/06 11:05:09;;;;;;;5.78;3.63;;;26.00;83.60;;;;;;6271022;22;20020;-71
2023/09/06 11:07:56;;;;;;;4.65;2.97;;;26.00;83.60;;;;;;6269979;22;20080;-71
2023/09/06 11:10:43;;;;;;;3.78;2.70;;;26.10;82.50;;;;;;6272052;22;20008;-71
2023/09/06 11:13:32;;;;;;;4.05;2.85;;;26.20;81.20;;;;;;6272791;22;20081;-70
2023/09/06 11:16:18;;;;;;;5.05;3.08;;;26.20;81.50;;;;;;6269121;22;20012;-71
2023/09/06 11:19:05;;;;;;;4.95;3.30;;;26.30;81.20;;;;;;6271118;22;20095;-70
2023/09/06 11:22:06;;;;;;;5.07;3.20;;;26.40;80.70;;;;;;6268596;22;20008;-71
2023/09/06 11:24:52;;;;;;;5.28;3.03;;;26.40;79.90;;;;;;6270956;22;20012;-71
2023/09/06 11:27:38;;;;;;;6.35;3.80;;;26.50;80.00;;;;;;6271608;22;20011;-72
2023/09/06 11:30:26;;;;;;;4.15;2.53;;;26.50;79.60;;;;;;6272508;22;20008;-73
2023/09/06 11:33:17;;;;;;;4.93;2.90;;;26.50;79.20;;;;;;6272812;22;20049;-72
2023/09/06 11:36:04;;;;;;;4.35;3.10;;;26.60;79.30;;;;;;6271702;22;20004;-72
2023/09/06 11:38:52;;;;;;;4.55;2.80;;;26.70;79.20;;;;;;6273176;22;20457;-73
2023/09/06 11:41:40;;;;;;;5.13;3.65;;;26.80;79.40;;;;;;6271329;22;20004;-71
2023/09/06 11:44:26;;;;;;;6.05;3.38;;;26.80;79.30;;;;;;6270832;22;20027;-71
2023/09/06 11:47:14;;;;;;;5.63;3.35;;;26.90;79.00;;;;;;6272983;22;20022;-71
2023/09/06 11:50:03;;;;;;;6.43;2.63;;;26.90;78.70;;;;;;6271337;22;20111;-71
2023/09/06 11:52:53;;;;;;;7.10;3.42;;;27.00;76.50;;;;;;6270556;22;20090;-71
2023/09/06 11:55:42;;;;;;;3.38;2.17;;;27.10;76.50;;;;;;6271669;22;20490;-71
2023/09/06 11:58:29;;;;;;;3.95;2.38;;;27.10;73.80;;;;;;6275071;22;20031;-70
2023/09/06 12:01:24;;;;;;;2.88;2.33;;;27.10;73.80;;;;;;6273641;22;20049;-71
2023/09/06 12:04:16;;;;;;;;;;;27.20;73.80;;;;;;6273429;22;20022;-72
2023/09/06 12:07:07;;;;;;;4.03;2.30;;;27.20;76.10;;;;;;6248214;22;20317;-70
2023/09/06 12:09:57;;;;;;;3.85;2.50;;;27.30;74.80;;;;;;6249289;22;20018;-73
2023/09/06 12:12:43;;;;;;;4.07;2.40;;;27.30;73.50;;;;;;6271745;22;20004;-72
2023/09/06 12:15:29;;;;;;;5.72;2.75;;;27.30;73.20;;;;;;6248891;22;20072;-73
2023/09/06 12:18:17;;;;;;;4.00;2.90;;;27.40;73.40;;;;;;6271226;22;20019;-72
2023/09/06 12:21:04;;;;;;;4.43;3.10;;;27.50;73.90;;;;;;6271335;22;20015;-73
2023/09/06 12:23:51;;;;;;;6.63;3.30;;;27.50;74.30;;;;;;6271081;22;20399;-70
2023/09/06 12:26:37;;;;;;;3.47;2.60;;;27.60;75.10;;;;;;6272810;22;20390;-74
2023/09/06 12:29:22;;;;;;;3.97;2.38;;;27.60;74.80;;;;;;6269094;22;20157;-69
2023/09/06 12:32:09;;;;;;;3.70;2.78;;;27.70;75.00;;;;;;6271671;22;20332;-75
2023/09/06 12:34:55;;;;;;;5.72;3.47;;;27.70;75.30;;;;;;6249898;22;20015;-73
2023/09/06 12:37:41;;;;;;;4.07;2.63;;;27.80;75.00;;;;;;6269180;22;20030;-71
2023/09/06 12:40:28;;;;;;;4.72;3.25;;;27.80;75.20;;;;;;6271685;22;20035;-73
2023/09/06 12:43:15;;;;;;;9.15;3.00;;;27.90;73.80;;;;;;6272355;22;20023;-72
2023/09/06 12:46:02;;;;;;;5.72;2.90;;;27.90;74.50;;;;;;6271812;22;20012;-72
2023/09/06 12:48:48;;;;;;;4.78;3.13;;;28.00;74.70;;;;;;6271054;22;20019;-72
2023/09/06 12:51:35;;;;;;;5.88;3.17;;;28.00;74.80;;;;;;6270295;22;20003;-71
2023/09/06 12:54:21;;;;;;;7.00;3.30;;;28.10;74.00;;;;;;6271454;22;20008;-69
2023/09/06 12:57:08;;;;;;;3.10;2.40;;;28.20;73.60;;;;;;6247706;22;20008;-69
2023/09/06 12:59:57;;;;;;;6.20;3.17;;;28.20;73.40;;;;;;6272426;22;20073;-69
2023/09/06 13:02:43;;;;;;;5.22;3.42;;;28.30;73.80;;;;;;6271254;22;20401;-69
2023/09/06 13:05:31;;;;;;;3.45;2.67;;;28.40;73.90;;;;;;6271622;22;20493;-69
2023/09/06 13:08:17;;;;;;;4.13;2.78;;;28.40;73.70;;;;;;6271564;22;20310;-68
2023/09/06 13:11:03;;;;;;;4.38;3.10;;;28.50;73.30;;;;;;6270653;22;20420;-68
2023/09/06 13:13:49;;;;;;;4.25;3.25;;;28.50;73.40;;;;;;6270885;22;20346;-68
2023/09/06 13:16:35;;;;;;;5.60;3.17;;;28.60;73.40;;;;;;6271239;22;20054;-68
2023/09/06 13:19:21;;;;;;;6.10;3.38;;;28.70;73.80;;;;;;6268751;22;20023;-69
2023/09/06 13:22:07;;;;;;;3.50;2.97;;;28.80;73.50;;;;;;6271055;22;20437;-69
2023/09/06 13:24:53;;;;;;;5.50;2.70;;;28.80;72.50;;;;;;6248981;22;20456;-68
2023/09/06 13:27:39;;;;;;;4.03;2.67;;;28.90;72.40;;;;;;6271514;22;20118;-68
2023/09/06 13:30:25;;;;;;;3.45;2.85;;;29.00;72.50;;;;;;6271342;22;20074;-68
2023/09/06 13:33:11;;;;;;;4.20;3.13;;;29.00;70.70;;;;;;6271250;22;20069;-68
2023/09/06 13:35:57;;;;;;;4.80;2.70;;;29.00;70.30;;;;;;6270183;22;20012;-68
2023/09/06 13:38:43;;;;;;;3.50;2.40;;;29.10;69.80;;;;;;6268369;22;20455;-68
2023/09/06 13:41:29;;;;;;;7.72;3.17;;;29.20;69.90;;;;;;6268333;22;20464;-68
2023/09/06 13:44:15;;;;;;;4.18;2.75;;;29.30;69.90;;;;;;6270187;22;20219;-68
2023/09/06 13:47:01;;;;;;;4.78;2.30;;;29.30;68.60;;;;;;6268921;22;20008;-69
2023/09/06 13:49:49;;;;;;;3.05;1.92;;;29.40;68.30;;;;;;6271258;22;20122;-68
2023/09/06 13:52:35;;;;;;;4.85;2.78;;;29.50;67.90;;;;;;6271283;22;20404;-72
2023/09/06 13:55:21;;;;;;;5.60;2.72;;;29.50;68.00;;;;;;6270448;22;20337;-72
2023/09/06 13:58:08;;;;;;;4.35;2.75;;;29.50;68.10;;;;;;6270147;22;20069;-70
2023/09/06 14:00:55;;;;;;;3.33;2.38;;;29.60;68.20;;;;;;6271239;22;20016;-71
2023/09/06 14:03:42;;;;;;;4.55;2.60;;;29.70;67.40;;;;;;6270127;22;20020;-72
2023/09/06 14:06:28;;;;;;;5.22;3.05;;;29.70;67.40;;;;;;6270274;22;20031;-72
2023/09/06 14:09:14;;;;;;;5.78;2.85;;;29.70;67.00;;;;;;6270010;22;20382;-72
2023/09/06 14:12:00;;;;;;;4.63;2.60;;;29.80;67.00;;;;;;6247060;22;20022;-72
2023/09/06 14:14:46;;;;;;;4.25;2.85;;;29.80;67.80;;;;;;6267963;22;20043;-72
2023/09/06 14:17:32;;;;;;;3.53;2.53;;;29.90;66.40;;;;;;6271313;22;20086;-71
2023/09/06 14:20:18;;;;;;;3.78;2.22;;;29.90;66.00;;;;;;6251651;22;20008;-71
2023/09/06 14:23:04;;;;;;;3.30;2.42;;;29.90;65.80;;;;;;6247691;22;20452;-72
2023/09/06 14:25:50;;;;;;;4.60;2.65;;;30.00;65.70;;;;;;6270298;22;20457;-72
2023/09/06 14:28:36;;;;;;;4.40;2.70;;;30.10;65.50;;;;;;6270238;22;20348;-72
2023/09/06 14:31:23;;;;;;;4.65;2.65;;;30.10;65.50;;;;;;6270620;22;20098;-72
2023/09/06 14:34:09;;;;;;;3.97;2.70;;;30.20;65.40;;;;;;6271145;22;20104;-71